createdAt,value
2018-09-26T00:01:59.847Z,8.25
2018-09-26T00:04:30.837Z,8.23
2018-09-26T00:07:00.814Z,8.31
2018-09-26T00:09:30.483Z,8.19
2018-09-26T00:11:59.904Z,8.17
2018-09-26T00:14:29.684Z,8.04
2018-09-26T00:16:59.309Z,8.08
2018-09-26T00:19:28.718Z,8.13
2018-09-26T00:21:58.582Z,8.06
2018-09-26T00:24:28.022Z,7.98
2018-09-26T00:26:57.489Z,7.95
2018-09-26T00:29:27.585Z,7.99
2018-09-26T00:31:56.923Z,7.91
2018-09-26T00:34:26.314Z,7.86
2018-09-26T00:36:56.185Z,7.75
2018-09-26T00:39:25.729Z,7.67
2018-09-26T00:41:55.137Z,7.68
2018-09-26T00:44:25.860Z,7.71
2018-09-26T00:46:55.558Z,7.66
2018-09-26T00:49:25.090Z,7.71
2018-09-26T00:51:54.995Z,7.58
2018-09-26T00:54:24.317Z,7.54
2018-09-26T00:56:53.650Z,7.50
2018-09-26T00:59:23.406Z,7.51
2018-09-26T01:01:52.883Z,7.34
2018-09-26T01:04:22.426Z,7.39
2018-09-26T01:06:52.126Z,7.40
2018-09-26T01:09:21.700Z,7.49
2018-09-26T01:11:51.433Z,7.48
2018-09-26T01:14:21.335Z,7.52
2018-09-26T01:16:50.945Z,7.40
2018-09-26T01:19:20.483Z,7.44
2018-09-26T01:21:50.868Z,7.49
2018-09-26T01:24:20.473Z,7.40
2018-09-26T01:26:50.049Z,7.37
2018-09-26T01:29:19.770Z,7.40
2018-09-26T01:31:49.317Z,7.29
2018-09-26T01:34:18.827Z,7.37
2018-09-26T01:36:48.694Z,7.34
2018-09-26T01:39:18.352Z,7.29
2018-09-26T01:41:48.065Z,7.27
2018-09-26T01:44:17.894Z,7.11
2018-09-26T01:46:47.490Z,6.97
2018-09-26T01:49:17.495Z,6.77
2018-09-26T01:51:47.842Z,6.75
2018-09-26T01:54:17.327Z,6.59
2018-09-26T01:56:46.923Z,6.62
2018-09-26T01:59:16.275Z,6.49
2018-09-26T02:01:45.862Z,6.38
2018-09-26T02:04:15.361Z,6.40
2018-09-26T02:06:44.881Z,6.41
2018-09-26T02:09:14.182Z,6.51
2018-09-26T02:11:43.874Z,6.51
2018-09-26T02:14:14.577Z,6.40
2018-09-26T02:16:44.121Z,6.37
2018-09-26T02:19:13.609Z,6.34
2018-09-26T02:21:43.443Z,6.21
2018-09-26T02:24:13.039Z,6.16
2018-09-26T02:26:42.448Z,6.16
2018-09-26T02:29:12.324Z,6.08
2018-09-26T02:31:41.869Z,6.10
2018-09-26T02:34:11.415Z,6.14
2018-09-26T02:36:41.373Z,6.09
2018-09-26T02:39:10.898Z,6.10
2018-09-26T02:41:40.664Z,6.13
2018-09-26T02:44:10.841Z,6.10
2018-09-26T02:46:40.590Z,6.12
2018-09-26T02:49:10.196Z,6.08
2018-09-26T02:51:39.699Z,5.99
2018-09-26T02:54:09.297Z,5.96
2018-09-26T02:56:38.589Z,5.91
2018-09-26T02:59:08.152Z,5.80
2018-09-26T03:01:37.619Z,5.76
2018-09-26T03:04:07.095Z,5.79
2018-09-26T03:06:36.810Z,5.75
2018-09-26T03:09:07.526Z,5.81
2018-09-26T03:11:37.555Z,5.68
2018-09-26T03:14:07.557Z,5.78
2018-09-26T03:16:37.149Z,5.80
2018-09-26T03:19:07.311Z,5.76
2018-09-26T03:21:37.443Z,5.70
2018-09-26T03:24:06.889Z,5.76
2018-09-26T03:26:37.477Z,5.69
2018-09-26T03:29:07.171Z,5.71
2018-09-26T03:31:36.855Z,5.80
2018-09-26T03:34:06.720Z,5.71
2018-09-26T03:36:36.101Z,5.81
2018-09-26T03:39:07.893Z,5.73
2018-09-26T03:41:37.786Z,5.78
2018-09-26T03:44:07.365Z,5.83
2018-09-26T03:46:37.506Z,5.88
2018-09-26T03:49:07.215Z,5.88
2018-09-26T03:51:36.811Z,5.89
2018-09-26T03:54:06.439Z,5.96
2018-09-26T03:56:35.814Z,5.90
2018-09-26T03:59:05.533Z,5.89
2018-09-26T04:01:35.458Z,5.88
2018-09-26T04:04:05.157Z,5.88
2018-09-26T04:06:37.522Z,5.85
2018-09-26T04:09:08.453Z,5.91
2018-09-26T04:11:37.826Z,5.93
2018-09-26T04:14:07.602Z,5.82
2018-09-26T04:16:37.174Z,5.82
2018-09-26T04:19:06.594Z,5.63
2018-09-26T04:21:36.321Z,5.63
2018-09-26T04:24:05.854Z,5.56
2018-09-26T04:26:35.232Z,5.47
2018-09-26T04:29:04.936Z,5.30
2018-09-26T04:31:34.342Z,5.28
2018-09-26T04:34:03.841Z,5.24
2018-09-26T04:36:33.192Z,5.29
2018-09-26T04:39:02.706Z,5.27
2018-09-26T04:41:32.025Z,5.26
2018-09-26T04:44:01.885Z,5.34
2018-09-26T04:46:31.372Z,5.42
2018-09-26T04:49:00.961Z,5.03
2018-09-26T04:51:30.835Z,5.02
2018-09-26T04:54:00.285Z,5.15
2018-09-26T04:56:30.000Z,5.33
2018-09-26T04:58:59.734Z,5.28
2018-09-26T05:01:29.063Z,5.33
2018-09-26T05:03:58.938Z,5.61
2018-09-26T05:06:28.578Z,5.64
2018-09-26T05:08:58.025Z,5.62
2018-09-26T05:11:27.721Z,5.61
2018-09-26T05:13:57.794Z,5.62
2018-09-26T05:16:27.291Z,5.73
2018-09-26T05:18:56.721Z,5.81
2018-09-26T05:21:26.377Z,5.87
2018-09-26T05:23:56.008Z,5.95
2018-09-26T05:26:25.621Z,6.07
2018-09-26T05:28:55.645Z,6.14
2018-09-26T05:31:25.399Z,6.15
2018-09-26T05:33:55.150Z,6.15
2018-09-26T05:36:24.983Z,6.25
2018-09-26T05:38:54.685Z,6.38
2018-09-26T05:41:24.427Z,6.46
2018-09-26T05:43:54.297Z,6.53
2018-09-26T05:46:23.805Z,6.64
2018-09-26T05:48:53.638Z,6.67
2018-09-26T05:51:23.546Z,6.73
2018-09-26T05:53:53.201Z,6.79
2018-09-26T05:56:23.023Z,6.87
2018-09-26T05:58:52.797Z,7.00
2018-09-26T06:01:22.390Z,7.05
2018-09-26T06:03:52.144Z,7.19
2018-09-26T06:06:22.228Z,7.13
2018-09-26T06:08:51.936Z,7.36
2018-09-26T06:11:21.434Z,7.50
2018-09-26T06:13:51.118Z,7.63
2018-09-26T06:16:20.749Z,7.74
2018-09-26T06:18:50.491Z,7.78
2018-09-26T06:21:20.150Z,7.77
2018-09-26T06:23:49.852Z,7.88
2018-09-26T06:26:19.625Z,7.90
2018-09-26T06:28:49.317Z,7.99
2018-09-26T06:31:19.123Z,7.79
2018-09-26T06:33:48.523Z,7.91
2018-09-26T06:36:18.621Z,8.24
2018-09-26T06:38:48.065Z,8.19
2018-09-26T06:41:17.615Z,8.27
2018-09-26T06:43:48.730Z,8.29
2018-09-26T06:46:18.515Z,8.45
2018-09-26T06:48:48.543Z,8.57
2018-09-26T06:51:18.839Z,8.72
2018-09-26T06:53:48.442Z,8.71
2018-09-26T06:56:18.355Z,8.74
2018-09-26T06:58:48.277Z,8.60
2018-09-26T07:01:17.856Z,8.77
2018-09-26T07:03:47.490Z,9.03
2018-09-26T07:06:17.432Z,9.01
2018-09-26T07:08:47.122Z,9.37
2018-09-26T07:11:16.601Z,9.41
2018-09-26T07:13:46.438Z,9.38
2018-09-26T07:16:16.200Z,9.46
2018-09-26T07:18:45.543Z,9.49
2018-09-26T07:21:15.257Z,9.55
2018-09-26T07:23:44.893Z,9.67
2018-09-26T07:26:14.609Z,9.76
2018-09-26T07:28:44.424Z,9.65
2018-09-26T07:31:14.147Z,9.58
2018-09-26T07:33:43.838Z,9.84
2018-09-26T07:36:13.690Z,10.14
2018-09-26T07:38:43.549Z,10.25
2018-09-26T07:41:13.168Z,10.29
2018-09-26T07:43:43.191Z,10.33
2018-09-26T07:46:13.809Z,10.29
2018-09-26T07:48:43.520Z,10.31
2018-09-26T07:51:13.397Z,10.20
2018-09-26T07:53:43.179Z,10.24
2018-09-26T07:56:13.357Z,10.38
2018-09-26T07:58:43.352Z,10.34
2018-09-26T08:01:13.213Z,10.60
2018-09-26T08:03:42.521Z,10.58
2018-09-26T08:06:12.360Z,10.79
2018-09-26T08:08:42.013Z,10.72
2018-09-26T08:11:11.693Z,10.85
2018-09-26T08:13:41.612Z,11.22
2018-09-26T08:16:11.252Z,11.55
2018-09-26T08:18:40.992Z,11.27
2018-09-26T08:21:11.286Z,10.92
2018-09-26T08:23:40.913Z,10.75
2018-09-26T08:26:10.574Z,10.83
2018-09-26T08:28:40.627Z,10.61
2018-09-26T08:31:10.216Z,10.80
2018-09-26T08:33:40.035Z,10.83
2018-09-26T08:36:09.900Z,11.06
2018-09-26T08:38:39.786Z,11.46
2018-09-26T08:41:09.489Z,11.43
2018-09-26T08:43:39.326Z,11.73
2018-09-26T08:46:08.879Z,11.85
2018-09-26T08:48:38.516Z,11.72
2018-09-26T08:51:08.763Z,11.46
2018-09-26T08:53:38.513Z,11.56
2018-09-26T08:56:08.796Z,11.55
2018-09-26T08:58:38.984Z,11.47
2018-09-26T09:01:13.719Z,11.56
2018-09-26T09:03:43.597Z,11.29
2018-09-26T09:06:13.111Z,11.40
2018-09-26T09:08:42.727Z,12.00
2018-09-26T09:11:12.594Z,12.50
2018-09-26T09:13:42.069Z,13.11
2018-09-26T09:16:11.826Z,13.18
2018-09-26T09:18:41.628Z,12.82
2018-09-26T09:21:11.622Z,12.51
2018-09-26T09:23:41.161Z,12.13
2018-09-26T09:26:11.214Z,11.88
2018-09-26T09:28:41.161Z,12.14
2018-09-26T09:31:11.034Z,12.50
2018-09-26T09:33:40.873Z,12.96
2018-09-26T09:36:10.190Z,13.11
2018-09-26T09:38:40.138Z,13.03
2018-09-26T09:41:09.844Z,12.94
2018-09-26T09:43:39.633Z,12.88
2018-09-26T09:46:09.278Z,12.57
2018-09-26T09:48:39.324Z,12.84
2018-09-26T09:51:09.033Z,13.35
2018-09-26T09:53:38.399Z,13.75
2018-09-26T09:56:08.611Z,14.01
2018-09-26T09:58:38.191Z,14.19
2018-09-26T10:01:12.916Z,13.92
2018-09-26T10:03:42.796Z,13.35
2018-09-26T10:06:12.468Z,13.66
2018-09-26T10:08:42.304Z,13.95
2018-09-26T10:11:12.137Z,14.19
2018-09-26T10:13:41.677Z,14.22
2018-09-26T10:16:11.330Z,14.17
2018-09-26T10:18:40.801Z,14.47
2018-09-26T10:21:10.455Z,14.61
2018-09-26T10:23:40.362Z,15.03
2018-09-26T10:26:10.561Z,15.24
2018-09-26T10:28:40.753Z,15.04
2018-09-26T10:31:10.353Z,15.07
2018-09-26T10:33:39.954Z,15.27
2018-09-26T10:36:09.711Z,14.75
2018-09-26T10:38:39.463Z,14.04
2018-09-26T10:41:09.187Z,13.45
2018-09-26T10:43:39.055Z,13.54
2018-09-26T10:46:09.129Z,14.11
2018-09-26T10:48:39.060Z,14.15
2018-09-26T10:51:08.871Z,13.79
2018-09-26T10:53:38.507Z,14.07
2018-09-26T10:56:08.032Z,13.56
2018-09-26T10:58:37.939Z,13.31
2018-09-26T11:01:07.833Z,12.83
2018-09-26T11:03:37.570Z,12.91
2018-09-26T11:06:07.658Z,12.84
2018-09-26T11:08:37.068Z,13.29
2018-09-26T11:11:06.767Z,13.40
2018-09-26T11:13:36.831Z,13.24
2018-09-26T11:16:06.478Z,13.56
2018-09-26T11:18:35.755Z,14.33
2018-09-26T11:21:05.504Z,14.78
2018-09-26T11:23:34.956Z,14.95
2018-09-26T11:26:04.585Z,15.24
2018-09-26T11:28:34.388Z,15.48
2018-09-26T11:31:03.979Z,15.56
2018-09-26T11:33:33.607Z,15.63
2018-09-26T11:36:03.613Z,15.56
2018-09-26T11:38:33.136Z,14.82
2018-09-26T11:41:02.896Z,14.48
2018-09-26T11:43:32.229Z,14.47
2018-09-26T11:46:01.563Z,14.97
2018-09-26T11:48:30.897Z,15.39
2018-09-26T11:51:00.857Z,15.25
2018-09-26T11:53:30.515Z,15.27
2018-09-26T11:56:00.172Z,15.22
2018-09-26T11:58:29.646Z,15.81
2018-09-26T12:00:59.360Z,16.06
2018-09-26T12:03:28.992Z,15.62
2018-09-26T12:05:58.774Z,15.18
2018-09-26T12:08:28.364Z,15.60
2018-09-26T12:10:58.040Z,16.26
2018-09-26T12:13:28.205Z,16.51
2018-09-26T12:15:57.780Z,16.22
2018-09-26T12:18:27.741Z,16.56
2018-09-26T12:20:57.747Z,17.04
2018-09-26T12:23:27.529Z,16.78
2018-09-26T12:25:57.393Z,16.94
2018-09-26T12:28:27.038Z,16.92
2018-09-26T12:30:56.736Z,16.71
2018-09-26T12:33:26.443Z,16.76
2018-09-26T12:35:56.039Z,16.91
2018-09-26T12:38:25.436Z,16.94
2018-09-26T12:40:55.222Z,17.56
2018-09-26T12:43:25.131Z,17.61
2018-09-26T12:45:54.879Z,17.71
2018-09-26T12:48:24.342Z,17.46
2018-09-26T12:50:54.339Z,17.24
2018-09-26T12:53:23.713Z,16.66
2018-09-26T12:55:53.338Z,16.25
2018-09-26T12:58:23.171Z,16.70
2018-09-26T13:00:52.895Z,16.71
2018-09-26T13:03:22.226Z,16.66
2018-09-26T13:05:52.431Z,16.52
2018-09-26T13:08:22.211Z,16.43
2018-09-26T13:10:51.669Z,16.07
2018-09-26T13:13:21.166Z,16.51
2018-09-26T13:15:51.698Z,16.47
2018-09-26T13:18:21.164Z,15.86
2018-09-26T13:20:51.152Z,16.22
2018-09-26T13:23:20.893Z,16.24
2018-09-26T13:25:50.362Z,16.23
2018-09-26T13:28:20.225Z,15.95
2018-09-26T13:30:49.935Z,15.98
2018-09-26T13:33:19.457Z,15.49
2018-09-26T13:35:48.976Z,14.66
2018-09-26T13:38:18.319Z,14.07
2018-09-26T13:40:47.994Z,13.75
2018-09-26T13:43:18.905Z,13.46
2018-09-26T13:45:48.331Z,13.73
2018-09-26T13:48:18.123Z,13.85
2018-09-26T13:50:47.528Z,13.95
2018-09-26T13:53:17.160Z,13.80
2018-09-26T13:55:47.029Z,13.57
2018-09-26T13:58:17.209Z,13.47
2018-09-26T14:00:47.094Z,13.12
2018-09-26T14:03:17.447Z,13.07
2018-09-26T14:05:47.273Z,13.19
2018-09-26T14:08:17.687Z,13.10
2018-09-26T14:10:47.421Z,13.08
2018-09-26T14:13:17.541Z,13.09
2018-09-26T14:15:47.205Z,12.84
2018-09-26T14:18:16.969Z,12.60
2018-09-26T14:20:46.948Z,12.47
2018-09-26T14:23:16.726Z,12.54
2018-09-26T14:25:46.515Z,12.57
2018-09-26T14:28:16.831Z,12.60
2018-09-26T14:30:46.629Z,12.55
2018-09-26T14:33:16.516Z,12.46
2018-09-26T14:35:46.700Z,12.54
2018-09-26T14:38:16.645Z,12.55
2018-09-26T14:40:46.403Z,12.32
2018-09-26T14:43:16.965Z,12.16
2018-09-26T14:45:46.771Z,12.07
2018-09-26T14:48:16.667Z,12.07
2018-09-26T14:50:46.929Z,11.89
2018-09-26T14:53:17.459Z,11.83
2018-09-26T14:55:47.445Z,11.78
2018-09-26T14:58:17.467Z,11.63
2018-09-26T15:00:47.569Z,11.77
2018-09-26T15:03:17.421Z,11.83
2018-09-26T15:05:47.494Z,11.78
2018-09-26T15:08:17.551Z,11.66
2018-09-26T15:10:47.382Z,11.67
2018-09-26T15:13:17.742Z,11.68
2018-09-26T15:15:47.650Z,11.63
2018-09-26T15:18:17.507Z,11.44
2018-09-26T15:20:47.988Z,11.18
2018-09-26T15:23:17.857Z,11.10
2018-09-26T15:25:47.718Z,11.10
2018-09-26T15:28:17.974Z,11.12
2018-09-26T15:30:47.758Z,11.10
2018-09-26T15:33:17.891Z,11.05
2018-09-26T15:35:48.200Z,11.05
2018-09-26T15:38:17.920Z,11.15
2018-09-26T15:40:47.997Z,11.33
2018-09-26T15:45:22.389Z,11.36
2018-09-26T15:47:52.445Z,11.42
2018-09-26T15:50:22.490Z,11.35
2018-09-26T15:52:53.327Z,11.37
2018-09-26T15:55:23.377Z,11.38
2018-09-26T15:57:53.386Z,11.24
2018-09-26T16:00:23.366Z,11.22
2018-09-26T16:02:53.304Z,10.96
2018-09-26T16:05:23.254Z,10.96
2018-09-26T16:07:53.411Z,10.89
2018-09-26T16:10:23.401Z,10.79
2018-09-26T16:12:53.181Z,10.69
2018-09-26T16:15:23.471Z,10.61
2018-09-26T16:17:53.400Z,10.54
2018-09-26T16:20:23.521Z,10.56
2018-09-26T16:22:53.594Z,10.57
2018-09-26T16:25:23.679Z,10.58
2018-09-26T16:27:53.537Z,10.55
2018-09-26T16:30:24.064Z,10.60
2018-09-26T16:32:54.051Z,10.69
2018-09-26T16:35:24.101Z,10.63
2018-09-26T16:37:54.384Z,10.61
2018-09-26T16:40:24.452Z,10.55
2018-09-26T16:42:54.501Z,10.48
2018-09-26T16:45:24.737Z,10.68
2018-09-26T16:47:54.794Z,10.72
2018-09-26T16:50:25.289Z,10.83
2018-09-26T16:52:55.422Z,10.72
2018-09-26T16:55:25.335Z,10.54
2018-09-26T16:57:55.578Z,10.47
2018-09-26T17:00:25.786Z,10.44
2018-09-26T17:02:55.589Z,10.51
2018-09-26T17:05:26.775Z,10.42
2018-09-26T17:07:56.869Z,10.44
2018-09-26T17:10:27.222Z,10.42
2018-09-26T17:12:57.358Z,10.53
2018-09-26T17:15:27.481Z,10.49
2018-09-26T17:17:58.048Z,10.60
2018-09-26T17:20:28.070Z,10.57
2018-09-26T17:22:58.014Z,10.48
2018-09-26T17:25:28.428Z,10.39
2018-09-26T17:27:58.746Z,10.34
2018-09-26T17:30:28.769Z,10.15
2018-09-26T17:32:59.702Z,10.14
2018-09-26T17:35:29.692Z,10.16
2018-09-26T17:37:59.590Z,10.27
2018-09-26T17:40:30.573Z,10.24
2018-09-26T17:43:00.699Z,10.25
2018-09-26T17:45:30.691Z,10.16
2018-09-26T17:48:00.681Z,10.07
2018-09-26T17:50:30.658Z,10.16
2018-09-26T17:53:00.740Z,9.97
2018-09-26T17:55:31.066Z,9.84
2018-09-26T17:58:00.997Z,9.80
2018-09-26T18:00:31.427Z,9.81
2018-09-26T18:03:03.381Z,9.75
2018-09-26T18:05:35.245Z,9.73
2018-09-26T18:08:06.231Z,9.75
2018-09-26T18:10:36.755Z,9.57
2018-09-26T18:13:07.371Z,9.39
2018-09-26T18:15:37.146Z,9.39
2018-09-26T18:18:07.679Z,9.27
2018-09-26T18:20:37.937Z,9.27
2018-09-26T18:23:08.489Z,9.16
2018-09-26T18:25:38.475Z,9.25
2018-09-26T18:28:09.920Z,9.24
2018-09-26T18:30:43.787Z,9.19
2018-09-26T18:34:17.337Z,9.15
2018-09-26T18:36:47.235Z,9.13
2018-09-26T18:39:18.319Z,9.17
2018-09-26T18:41:48.371Z,9.11
2018-09-26T18:44:20.078Z,9.07
2018-09-26T18:46:50.339Z,8.95
2018-09-26T18:49:20.423Z,9.02
2018-09-26T18:51:50.601Z,8.96
2018-09-26T18:54:20.570Z,9.05
2018-09-26T18:56:51.629Z,9.03
2018-09-26T18:59:22.309Z,9.03
2018-09-26T19:01:52.898Z,9.04
2018-09-26T19:04:23.125Z,8.98
2018-09-26T19:06:54.669Z,8.82
2018-09-26T19:09:25.045Z,8.77
2018-09-26T19:11:56.140Z,8.76
2018-09-26T19:14:26.936Z,8.71
2018-09-26T19:16:57.118Z,8.62
2018-09-26T19:19:27.472Z,8.65
2018-09-26T19:21:57.607Z,8.56
2018-09-26T19:24:28.122Z,8.49
2018-09-26T19:26:58.254Z,8.59
2018-09-26T19:29:28.458Z,8.49
2018-09-26T19:31:59.445Z,8.47
2018-09-26T19:34:29.968Z,8.43
2018-09-26T19:37:00.814Z,8.36
2018-09-26T19:39:30.876Z,8.32
2018-09-26T19:42:01.301Z,8.23
2018-09-26T19:44:31.148Z,8.20
2018-09-26T19:47:01.178Z,8.26
2018-09-26T19:49:31.521Z,8.07
2018-09-26T19:52:02.758Z,8.04
2018-09-26T19:54:32.730Z,7.99
2018-09-26T19:57:02.730Z,8.11
2018-09-26T19:59:32.562Z,8.06
2018-09-26T20:02:03.081Z,8.10
2018-09-26T20:04:33.672Z,8.04
2018-09-26T20:07:03.997Z,8.06
2018-09-26T20:09:33.810Z,7.94
2018-09-26T20:12:05.810Z,8.04
2018-09-26T20:14:35.960Z,7.88
2018-09-26T20:17:05.818Z,7.87
2018-09-26T20:19:35.956Z,7.44
2018-09-26T20:22:07.108Z,7.21
2018-09-26T20:24:37.482Z,6.96
2018-09-26T20:27:07.892Z,6.75
2018-09-26T20:29:37.757Z,6.71
2018-09-26T20:32:08.491Z,6.86
2018-09-26T20:34:38.980Z,6.80
2018-09-26T20:37:09.653Z,6.94
2018-09-26T20:39:39.732Z,6.94
2018-09-26T20:42:10.179Z,7.10
2018-09-26T20:44:40.505Z,7.10
2018-09-26T20:47:10.501Z,6.85
2018-09-26T20:49:40.420Z,6.81
2018-09-26T20:52:11.347Z,6.89
2018-09-26T20:54:41.799Z,7.03
2018-09-26T20:57:11.814Z,6.88
2018-09-26T20:59:42.143Z,6.92
2018-09-26T21:02:13.184Z,6.93
2018-09-26T21:04:44.007Z,6.96
2018-09-26T21:07:14.745Z,7.03
2018-09-26T21:09:44.865Z,7.01
2018-09-26T21:12:16.212Z,6.95
2018-09-26T21:14:46.513Z,6.74
2018-09-26T21:17:16.299Z,6.59
2018-09-26T21:19:46.564Z,6.61
2018-09-26T21:22:16.680Z,6.48
2018-09-26T21:24:47.828Z,6.49
2018-09-26T21:27:17.626Z,6.39
2018-09-26T21:29:47.950Z,6.31
2018-09-26T21:32:18.017Z,6.11
2018-09-26T21:34:48.122Z,6.08
2018-09-26T21:37:17.954Z,6.09
2018-09-26T21:39:48.847Z,5.99
2018-09-26T21:42:18.794Z,5.84
2018-09-26T21:44:50.498Z,5.67
2018-09-26T21:47:20.449Z,5.79
2018-09-26T21:49:50.457Z,5.96
2018-09-26T21:52:20.647Z,5.81
2018-09-26T21:54:50.619Z,5.97
2018-09-26T21:57:20.726Z,5.95
2018-09-26T21:59:50.954Z,5.81
2018-09-26T22:02:20.803Z,5.93
2018-09-26T22:04:50.878Z,5.73
2018-09-26T22:07:21.014Z,5.68
2018-09-26T22:09:51.241Z,5.74
2018-09-26T22:12:22.374Z,5.69
2018-09-26T22:14:52.318Z,5.64
2018-09-26T22:17:24.187Z,5.60
2018-09-26T22:19:54.171Z,5.59
2018-09-26T22:22:24.657Z,5.62
2018-09-26T22:24:54.768Z,5.52
2018-09-26T22:27:24.743Z,5.49
2018-09-26T22:29:54.758Z,5.66
2018-09-26T22:32:25.196Z,5.74
2018-09-26T22:34:55.090Z,5.84
2018-09-26T22:37:25.009Z,5.87
2018-09-26T22:39:55.281Z,5.85
2018-09-26T22:42:25.224Z,5.81
2018-09-26T22:44:55.155Z,5.88
2018-09-26T22:47:25.579Z,5.70
2018-09-26T22:49:55.501Z,5.68
2018-09-26T22:52:25.426Z,5.66
2018-09-26T22:54:55.524Z,5.86
2018-09-26T22:57:25.467Z,5.61
2018-09-26T22:59:55.346Z,5.75
2018-09-26T23:02:25.478Z,5.76
2018-09-26T23:04:55.420Z,5.71
2018-09-26T23:07:25.213Z,5.55
2018-09-26T23:09:55.288Z,5.63
2018-09-26T23:12:25.135Z,5.29
2018-09-26T23:14:55.026Z,5.11
2018-09-26T23:17:25.406Z,5.38
2018-09-26T23:19:55.204Z,5.31
2018-09-26T23:22:25.079Z,5.36
2018-09-26T23:24:55.253Z,4.92
2018-09-26T23:27:25.141Z,5.04
2018-09-26T23:29:55.070Z,5.24
2018-09-26T23:32:25.311Z,5.20
2018-09-26T23:34:55.187Z,5.24
2018-09-26T23:37:25.107Z,5.22
2018-09-26T23:39:55.359Z,5.07
2018-09-26T23:42:25.133Z,5.12
2018-09-26T23:44:55.036Z,5.06
2018-09-26T23:47:25.027Z,4.72
2018-09-26T23:49:54.885Z,4.57
2018-09-26T23:52:24.701Z,4.49
2018-09-26T23:54:54.834Z,4.26
2018-09-26T23:57:24.744Z,4.16
2018-09-26T23:59:54.579Z,4.29
